createdAt,value
2023-02-23T00:02:18.360Z,10.97
2023-02-23T00:04:50.294Z,10.86
2023-02-23T00:07:20.049Z,10.77
2023-02-23T00:09:47.331Z,10.93
2023-02-23T00:12:16.879Z,10.94
2023-02-23T00:14:49.028Z,10.82
2023-02-23T00:17:17.528Z,10.96
2023-02-23T00:19:49.712Z,10.91
2023-02-23T00:22:16.884Z,10.94
2023-02-23T00:24:47.770Z,10.90
2023-02-23T00:27:19.023Z,10.88
2023-02-23T00:29:49.791Z,10.78
2023-02-23T00:32:31.144Z,10.90
2023-02-23T00:34:58.508Z,10.82
2023-02-23T00:37:29.984Z,10.89
2023-02-23T00:39:57.416Z,10.74
2023-02-23T00:42:29.698Z,10.87
2023-02-23T00:44:57.275Z,10.96
2023-02-23T00:47:26.566Z,11.05
2023-02-23T00:49:53.553Z,10.94
2023-02-23T00:52:23.624Z,10.81
2023-02-23T00:54:51.470Z,10.71
2023-02-23T00:57:22.281Z,10.55
2023-02-23T00:59:49.257Z,10.86
2023-02-23T01:02:16.215Z,10.88
2023-02-23T01:04:43.172Z,11.03
2023-02-23T01:07:12.895Z,10.98
2023-02-23T01:09:40.026Z,10.93
2023-02-23T01:12:07.665Z,11.00
2023-02-23T01:14:35.841Z,10.88
2023-02-23T01:17:07.771Z,10.99
2023-02-23T01:19:39.800Z,10.82
2023-02-23T01:22:09.396Z,10.52
2023-02-23T01:24:38.784Z,10.61
2023-02-23T01:27:08.015Z,10.54
2023-02-23T01:29:35.069Z,10.59
2023-02-23T01:32:05.053Z,10.61
2023-02-23T01:34:32.920Z,10.61
2023-02-23T01:36:59.922Z,10.72
2023-02-23T01:39:27.098Z,10.74
2023-02-23T01:41:55.555Z,10.55
2023-02-23T01:44:22.401Z,10.59
2023-02-23T01:46:50.289Z,10.71
2023-02-23T01:49:25.961Z,10.65
2023-02-23T01:52:03.745Z,10.68
2023-02-23T01:54:50.400Z,10.51
2023-02-23T01:57:24.719Z,10.39
2023-02-23T01:59:54.844Z,10.46
2023-02-23T02:02:33.539Z,10.40
2023-02-23T02:05:06.450Z,10.53
2023-02-23T02:07:40.065Z,10.59
2023-02-23T02:10:11.536Z,10.49
2023-02-23T02:12:45.992Z,10.35
2023-02-23T02:15:18.808Z,10.35
2023-02-23T02:18:18.749Z,10.25
2023-02-23T02:21:11.665Z,10.32
2023-02-23T02:24:08.843Z,10.25
2023-02-23T02:26:47.810Z,10.29
2023-02-23T02:29:39.754Z,10.21
2023-02-23T02:32:24.764Z,10.12
2023-02-23T02:35:46.695Z,10.12
2023-02-23T02:38:50.690Z,10.01
2023-02-23T02:41:42.356Z,9.75
2023-02-23T02:44:31.028Z,9.71
2023-02-23T02:47:09.574Z,9.75
2023-02-23T02:50:06.942Z,9.88
2023-02-23T02:52:52.657Z,9.79
2023-02-23T02:55:26.464Z,9.93
2023-02-23T02:57:58.122Z,9.80
2023-02-23T03:00:53.943Z,9.96
2023-02-23T03:04:02.821Z,9.68
2023-02-23T03:06:51.387Z,9.74
2023-02-23T03:10:18.160Z,9.80
2023-02-23T03:13:37.712Z,9.69
2023-02-23T03:16:55.438Z,9.66
2023-02-23T03:20:24.263Z,9.94
2023-02-23T03:24:09.907Z,9.97
2023-02-23T03:27:17.333Z,9.71
2023-02-23T03:30:12.247Z,9.58
2023-02-23T03:33:11.575Z,9.51
2023-02-23T03:36:29.117Z,9.63
2023-02-23T03:39:31.638Z,9.38
2023-02-23T03:42:21.378Z,9.21
2023-02-23T03:45:08.970Z,9.30
2023-02-23T03:48:00.635Z,9.42
2023-02-23T03:51:05.823Z,9.10
2023-02-23T03:54:04.937Z,9.29
2023-02-23T03:56:56.040Z,9.04
2023-02-23T03:59:49.145Z,9.14
2023-02-23T04:02:38.254Z,9.32
2023-02-23T04:05:30.525Z,9.16
2023-02-23T04:08:19.948Z,9.24
2023-02-23T04:11:15.067Z,9.29
2023-02-23T04:13:44.957Z,9.24
2023-02-23T04:16:12.422Z,9.28
2023-02-23T04:18:45.051Z,9.38
2023-02-23T04:21:14.990Z,9.32
2023-02-23T04:23:43.463Z,9.11
2023-02-23T04:26:10.472Z,9.48
2023-02-23T04:28:39.934Z,9.54
2023-02-23T04:31:07.090Z,9.45
2023-02-23T04:33:36.432Z,9.37
2023-02-23T04:36:03.590Z,9.46
2023-02-23T04:38:30.630Z,9.29
2023-02-23T04:40:57.652Z,8.98
2023-02-23T04:43:24.616Z,9.06
2023-02-23T04:45:54.184Z,9.07
2023-02-23T04:48:26.847Z,9.15
2023-02-23T04:50:54.980Z,9.20
2023-02-23T04:53:25.293Z,9.34
2023-02-23T04:55:52.527Z,9.50
2023-02-23T04:58:21.849Z,9.51
2023-02-23T05:00:49.757Z,9.35
2023-02-23T05:03:17.650Z,9.24
2023-02-23T05:05:45.292Z,9.42
2023-02-23T05:08:12.505Z,9.17
2023-02-23T05:10:41.620Z,9.23
2023-02-23T05:13:11.532Z,9.25
2023-02-23T05:15:41.990Z,9.24
2023-02-23T05:18:09.386Z,9.26
2023-02-23T05:20:36.784Z,9.39
2023-02-23T05:23:03.914Z,9.41
2023-02-23T05:25:31.028Z,9.48
2023-02-23T05:27:58.092Z,9.58
2023-02-23T05:30:25.133Z,9.39
2023-02-23T05:32:52.189Z,9.48
2023-02-23T05:35:21.367Z,9.53
2023-02-23T05:37:50.572Z,9.46
2023-02-23T05:40:20.794Z,9.48
2023-02-23T05:42:50.827Z,9.29
2023-02-23T05:45:18.004Z,9.57
2023-02-23T05:47:45.066Z,9.63
2023-02-23T05:50:14.549Z,9.74
2023-02-23T05:52:44.368Z,9.57
2023-02-23T05:55:15.181Z,9.81
2023-02-23T05:57:42.872Z,9.91
2023-02-23T06:00:13.420Z,10.14
2023-02-23T06:02:41.696Z,10.17
2023-02-23T06:05:11.371Z,9.87
2023-02-23T06:07:38.712Z,9.91
2023-02-23T06:10:06.622Z,10.04
2023-02-23T06:12:33.654Z,10.09
2023-02-23T06:15:03.443Z,9.88
2023-02-23T06:17:33.003Z,10.03
2023-02-23T06:20:03.475Z,9.57
2023-02-23T06:22:31.044Z,9.69
2023-02-23T06:25:04.994Z,9.60
2023-02-23T06:27:34.344Z,9.67
2023-02-23T06:30:03.324Z,9.63
2023-02-23T06:32:30.354Z,9.46
2023-02-23T06:34:57.285Z,9.56
2023-02-23T06:37:27.067Z,9.74
2023-02-23T06:39:56.487Z,9.78
2023-02-23T06:42:24.275Z,9.71
2023-02-23T06:44:53.696Z,9.58
2023-02-23T06:47:20.681Z,9.62
2023-02-23T06:49:47.832Z,9.65
2023-02-23T06:52:17.445Z,9.84
2023-02-23T06:54:45.336Z,9.90
2023-02-23T06:57:17.049Z,9.69
2023-02-23T06:59:43.913Z,9.89
2023-02-23T07:02:14.454Z,9.95
2023-02-23T07:04:41.342Z,10.08
2023-02-23T07:07:08.294Z,10.20
2023-02-23T07:09:35.334Z,10.49
2023-02-23T07:12:07.167Z,10.48
2023-02-23T07:14:37.666Z,10.50
2023-02-23T07:17:05.423Z,10.51
2023-02-23T07:19:35.284Z,10.62
2023-02-23T07:22:03.535Z,10.38
2023-02-23T07:24:30.771Z,10.40
2023-02-23T07:26:57.937Z,10.51
2023-02-23T07:29:28.365Z,10.48
2023-02-23T07:32:00.374Z,10.51
2023-02-23T07:34:27.479Z,10.59
2023-02-23T07:36:58.990Z,10.56
2023-02-23T07:39:25.937Z,10.58
2023-02-23T07:41:57.491Z,10.53
2023-02-23T07:44:28.951Z,10.61
2023-02-23T07:46:56.450Z,10.37
2023-02-23T07:49:23.385Z,10.43
2023-02-23T07:51:55.446Z,10.13
2023-02-23T07:54:26.070Z,10.16
2023-02-23T07:56:53.459Z,10.53
2023-02-23T07:59:24.987Z,10.77
2023-02-23T08:01:52.436Z,10.86
2023-02-23T08:04:22.642Z,10.53
2023-02-23T08:06:52.295Z,10.40
2023-02-23T08:09:21.737Z,10.66
2023-02-23T08:11:51.890Z,10.80
2023-02-23T08:14:22.033Z,10.85
2023-02-23T08:16:51.805Z,10.63
2023-02-23T08:19:23.873Z,10.77
2023-02-23T08:21:51.115Z,10.98
2023-02-23T08:24:20.783Z,11.09
2023-02-23T08:26:50.485Z,11.09
2023-02-23T08:29:17.612Z,11.21
2023-02-23T08:31:45.084Z,11.20
2023-02-23T08:34:12.250Z,11.09
2023-02-23T08:36:40.568Z,11.29
2023-02-23T08:39:10.017Z,10.71
2023-02-23T08:41:39.708Z,10.98
2023-02-23T08:44:06.759Z,11.18
2023-02-23T08:46:34.290Z,11.23
2023-02-23T08:49:01.255Z,11.17
2023-02-23T08:51:28.197Z,11.28
2023-02-23T08:53:57.542Z,11.37
2023-02-23T08:56:27.133Z,11.51
2023-02-23T08:58:54.281Z,11.58
2023-02-23T09:01:24.616Z,11.38
2023-02-23T09:03:51.533Z,11.53
2023-02-23T09:06:22.278Z,11.63
2023-02-23T09:08:49.733Z,11.56
2023-02-23T09:11:17.043Z,11.49
2023-02-23T09:13:44.678Z,11.32
2023-02-23T09:16:11.799Z,11.30
2023-02-23T09:18:44.248Z,11.33
2023-02-23T09:21:19.145Z,11.38
2023-02-23T09:23:48.237Z,11.38
2023-02-23T09:26:18.896Z,11.43
2023-02-23T09:28:46.504Z,11.39
2023-02-23T09:31:18.300Z,11.56
2023-02-23T09:33:45.556Z,11.64
2023-02-23T09:36:20.612Z,11.43
2023-02-23T09:38:55.122Z,11.45
2023-02-23T09:41:51.267Z,11.83
2023-02-23T09:44:48.193Z,11.88
2023-02-23T09:47:32.845Z,11.88
2023-02-23T09:50:09.469Z,12.08
2023-02-23T09:52:47.672Z,12.31
2023-02-23T09:55:15.166Z,12.32
2023-02-23T09:57:49.959Z,12.25
2023-02-23T10:00:27.737Z,12.23
2023-02-23T10:03:25.033Z,12.16
2023-02-23T10:06:03.232Z,12.47
2023-02-23T10:09:14.489Z,12.43
2023-02-23T10:12:08.355Z,12.31
2023-02-23T10:14:56.213Z,12.33
2023-02-23T10:17:31.849Z,12.48
2023-02-23T10:20:29.426Z,12.39
2023-02-23T10:23:04.052Z,12.22
2023-02-23T10:25:36.075Z,12.52
2023-02-23T10:28:05.497Z,12.32
2023-02-23T10:30:34.714Z,12.18
2023-02-23T10:33:47.474Z,12.31
2023-02-23T10:36:19.681Z,12.24
2023-02-23T10:38:47.346Z,12.31
2023-02-23T10:41:15.035Z,12.30
2023-02-23T10:43:42.326Z,12.43
2023-02-23T10:46:24.373Z,12.45
2023-02-23T10:48:57.077Z,12.46
2023-02-23T10:51:32.710Z,12.55
2023-02-23T10:54:08.064Z,12.72
2023-02-23T10:56:50.154Z,12.66
2023-02-23T10:59:21.621Z,12.89
2023-02-23T11:02:01.358Z,12.72
2023-02-23T11:04:35.074Z,12.76
2023-02-23T11:07:17.865Z,12.68
2023-02-23T11:09:48.485Z,12.82
2023-02-23T11:12:23.333Z,12.66
2023-02-23T11:14:53.199Z,12.60
2023-02-23T11:17:28.699Z,12.69
2023-02-23T11:20:25.528Z,12.87
2023-02-23T11:22:52.565Z,13.18
2023-02-23T11:25:31.123Z,13.08
2023-02-23T11:27:58.890Z,13.28
2023-02-23T11:30:42.940Z,13.35
2023-02-23T11:33:21.676Z,13.38
2023-02-23T11:35:48.582Z,13.33
2023-02-23T11:38:30.601Z,13.23
2023-02-23T11:41:07.295Z,12.81
2023-02-23T11:43:36.070Z,12.66
2023-02-23T11:46:06.105Z,12.39
2023-02-23T11:48:44.051Z,12.39
2023-02-23T11:51:11.122Z,12.18
2023-02-23T11:53:46.703Z,12.24
2023-02-23T11:56:22.668Z,12.29
2023-02-23T11:58:55.858Z,12.44
2023-02-23T12:01:49.513Z,12.50
2023-02-23T12:04:37.069Z,12.57
2023-02-23T12:07:41.638Z,12.53
2023-02-23T12:10:33.004Z,12.43
2023-02-23T12:13:17.626Z,12.07
2023-02-23T12:15:54.769Z,11.68
2023-02-23T12:18:43.325Z,12.09
2023-02-23T12:21:41.192Z,12.16
2023-02-23T12:24:26.809Z,12.24
2023-02-23T12:27:35.202Z,12.56
2023-02-23T12:30:41.145Z,12.41
2023-02-23T12:33:30.043Z,12.11
2023-02-23T12:36:04.141Z,12.27
2023-02-23T12:38:56.900Z,12.43
2023-02-23T12:41:37.846Z,12.39
2023-02-23T12:44:17.389Z,12.39
2023-02-23T12:46:54.421Z,12.57
2023-02-23T12:49:45.355Z,12.04
2023-02-23T12:52:29.436Z,12.03
2023-02-23T12:55:01.211Z,11.96
2023-02-23T12:57:54.896Z,11.96
2023-02-23T13:00:58.216Z,12.14
2023-02-23T13:03:46.708Z,11.96
2023-02-23T13:06:37.839Z,11.73
2023-02-23T13:09:19.649Z,11.78
2023-02-23T13:12:53.830Z,11.79
2023-02-23T13:15:45.645Z,11.79
2023-02-23T13:18:24.654Z,11.65
2023-02-23T13:21:21.891Z,11.72
2023-02-23T13:24:19.011Z,11.70
2023-02-23T13:26:59.252Z,11.87
2023-02-23T13:29:48.693Z,11.75
2023-02-23T13:32:32.065Z,11.82
2023-02-23T13:35:01.841Z,11.88
2023-02-23T13:37:43.257Z,11.94
2023-02-23T13:40:43.187Z,11.95
2023-02-23T13:43:34.865Z,11.71
2023-02-23T13:46:26.424Z,11.32
2023-02-23T13:49:02.374Z,11.29
2023-02-23T13:51:52.151Z,11.38
2023-02-23T13:54:25.132Z,11.36
2023-02-23T13:56:59.824Z,11.51
2023-02-23T13:59:43.955Z,11.29
2023-02-23T14:02:46.736Z,11.36
2023-02-23T14:05:15.624Z,11.45
2023-02-23T14:07:46.254Z,11.64
2023-02-23T14:10:24.861Z,11.76
2023-02-23T14:13:48.797Z,11.71
2023-02-23T14:16:22.656Z,11.63
2023-02-23T14:19:07.831Z,11.58
2023-02-23T14:21:52.278Z,11.26
2023-02-23T14:24:25.096Z,11.43
2023-02-23T14:27:40.427Z,11.53
2023-02-23T14:30:11.018Z,11.59
2023-02-23T14:32:46.133Z,11.56
2023-02-23T14:35:34.656Z,11.64
2023-02-23T14:38:11.752Z,11.61
2023-02-23T14:40:46.988Z,11.53
2023-02-23T14:43:49.398Z,11.39
2023-02-23T14:46:26.495Z,11.57
2023-02-23T14:49:21.412Z,11.26
2023-02-23T14:51:58.557Z,11.36
2023-02-23T14:54:31.139Z,11.57
2023-02-23T14:57:04.645Z,11.53
2023-02-23T14:59:42.605Z,11.47
2023-02-23T15:02:18.849Z,11.52
2023-02-23T15:04:48.367Z,11.17
2023-02-23T15:07:32.184Z,11.42
2023-02-23T15:10:03.873Z,11.49
2023-02-23T15:12:39.424Z,11.61
2023-02-23T15:15:23.146Z,11.47
2023-02-23T15:18:01.071Z,11.46
2023-02-23T15:23:04.444Z,11.59
2023-02-23T15:25:41.486Z,11.51
2023-02-23T15:28:25.626Z,11.30
2023-02-23T15:31:00.919Z,11.44
2023-02-23T15:33:31.184Z,11.63
2023-02-23T15:36:23.291Z,11.69
2023-02-23T15:38:57.266Z,11.74
2023-02-23T15:41:36.839Z,11.68
2023-02-23T15:44:20.148Z,11.64
2023-02-23T15:46:54.777Z,11.63
2023-02-23T15:49:25.174Z,11.40
2023-02-23T15:52:03.681Z,11.52
2023-02-23T15:55:06.408Z,11.35
2023-02-23T15:58:01.012Z,11.16
2023-02-23T16:00:44.448Z,11.35
2023-02-23T16:03:33.403Z,11.47
2023-02-23T16:06:08.277Z,11.45
2023-02-23T16:08:36.847Z,11.52
2023-02-23T16:11:19.199Z,11.54
2023-02-23T16:13:47.087Z,11.62
2023-02-23T16:16:20.577Z,11.56
2023-02-23T16:18:54.402Z,11.46
2023-02-23T16:21:25.597Z,11.62
2023-02-23T16:24:05.636Z,11.66
2023-02-23T16:26:41.745Z,11.58
2023-02-23T16:29:18.581Z,11.65
2023-02-23T16:31:59.910Z,11.83
2023-02-23T16:34:37.281Z,11.49
2023-02-23T16:37:20.125Z,11.56
2023-02-23T16:39:48.111Z,11.61
2023-02-23T16:42:30.721Z,11.66
2023-02-23T16:45:01.148Z,11.57
2023-02-23T16:47:41.442Z,11.62
2023-02-23T16:50:24.525Z,11.72
2023-02-23T16:52:53.564Z,11.84
2023-02-23T16:55:27.246Z,11.52
2023-02-23T16:58:05.619Z,11.60
2023-02-23T17:00:34.250Z,11.53
2023-02-23T17:03:06.309Z,11.60
2023-02-23T17:05:35.892Z,11.51
2023-02-23T17:08:02.993Z,11.52
2023-02-23T17:10:35.979Z,11.56
2023-02-23T17:13:11.121Z,11.64
2023-02-23T17:15:53.637Z,11.65
2023-02-23T17:21:02.694Z,11.70
2023-02-23T17:23:50.755Z,11.73
2023-02-23T17:26:23.653Z,11.60
2023-02-23T17:28:51.351Z,11.74
2023-02-23T17:31:20.433Z,11.76
2023-02-23T17:33:50.252Z,11.37
2023-02-23T17:36:20.832Z,11.20
2023-02-23T17:38:50.929Z,11.17
2023-02-23T17:41:20.405Z,11.18
2023-02-23T17:43:49.839Z,11.23
2023-02-23T17:46:19.714Z,11.03
2023-02-23T17:48:49.535Z,10.91
2023-02-23T17:51:24.061Z,11.19
2023-02-23T17:53:51.075Z,10.98
2023-02-23T17:56:19.940Z,11.00
2023-02-23T17:58:50.637Z,10.56
2023-02-23T18:01:20.474Z,10.19
2023-02-23T18:03:48.088Z,9.96
2023-02-23T18:06:17.547Z,9.96
2023-02-23T18:08:47.058Z,9.84
2023-02-23T18:11:18.490Z,9.95
2023-02-23T18:13:51.160Z,9.97
2023-02-23T18:16:19.253Z,10.01
2023-02-23T18:18:48.880Z,9.86
2023-02-23T18:21:20.041Z,10.06
2023-02-23T18:23:50.858Z,10.08
2023-02-23T18:26:23.916Z,10.11
2023-02-23T18:28:54.216Z,10.00
2023-02-23T18:31:25.296Z,10.13
2023-02-23T18:33:56.425Z,10.29
2023-02-23T18:36:30.991Z,10.43
2023-02-23T18:39:04.097Z,10.38
2023-02-23T18:41:31.335Z,10.32
2023-02-23T18:44:02.765Z,10.21
2023-02-23T18:46:32.526Z,10.36
2023-02-23T18:48:59.807Z,10.37
2023-02-23T18:51:26.998Z,10.18
2023-02-23T18:53:54.840Z,10.03
2023-02-23T18:56:28.110Z,10.21
2023-02-23T18:59:01.471Z,10.16
2023-02-23T19:01:42.541Z,9.89
2023-02-23T19:04:10.613Z,9.82
2023-02-23T19:06:40.221Z,9.90
2023-02-23T19:09:12.677Z,9.68
2023-02-23T19:11:41.671Z,9.84
2023-02-23T19:14:18.457Z,9.86
2023-02-23T19:16:52.093Z,9.86
2023-02-23T19:19:19.138Z,10.03
2023-02-23T19:21:48.874Z,9.73
2023-02-23T19:24:16.211Z,9.39
2023-02-23T19:26:43.185Z,9.10
2023-02-23T19:29:12.324Z,9.10
2023-02-23T19:31:42.316Z,9.16
2023-02-23T19:34:11.275Z,9.22
2023-02-23T19:36:38.126Z,9.27
2023-02-23T19:39:16.007Z,9.13
2023-02-23T19:41:45.358Z,9.04
2023-02-23T19:44:12.550Z,8.96
2023-02-23T19:46:44.415Z,9.07
2023-02-23T19:49:15.627Z,9.29
2023-02-23T19:51:44.319Z,8.99
2023-02-23T19:54:12.177Z,9.02
2023-02-23T19:56:39.330Z,8.95
2023-02-23T19:59:06.734Z,9.03
2023-02-23T20:01:33.809Z,9.00
2023-02-23T20:04:06.634Z,9.00
2023-02-23T20:06:40.953Z,8.97
2023-02-23T20:09:10.439Z,9.00
2023-02-23T20:11:37.463Z,9.05
2023-02-23T20:14:08.229Z,8.98
2023-02-23T20:16:35.992Z,8.88
2023-02-23T20:19:05.591Z,8.73
2023-02-23T20:21:32.717Z,8.69
2023-02-23T20:24:03.802Z,8.61
2023-02-23T20:26:35.378Z,8.46
2023-02-23T20:29:11.255Z,8.59
2023-02-23T20:31:41.955Z,8.67
2023-02-23T20:34:11.165Z,8.73
2023-02-23T20:36:40.114Z,8.61
2023-02-23T20:39:09.274Z,8.52
2023-02-23T20:41:36.286Z,8.68
2023-02-23T20:44:03.760Z,8.77
2023-02-23T20:46:30.992Z,8.86
2023-02-23T20:48:59.472Z,8.90
2023-02-23T20:51:27.390Z,8.89
2023-02-23T20:53:57.649Z,8.47
2023-02-23T20:56:32.759Z,8.60
2023-02-23T20:58:59.965Z,8.52
2023-02-23T21:01:29.480Z,8.51
2023-02-23T21:03:56.995Z,8.41
2023-02-23T21:06:26.015Z,8.53
2023-02-23T21:09:02.746Z,8.34
2023-02-23T21:11:32.187Z,8.14
2023-02-23T21:14:02.195Z,8.30
2023-02-23T21:16:32.244Z,8.35
2023-02-23T21:19:05.234Z,8.30
2023-02-23T21:21:47.109Z,8.26
2023-02-23T21:24:19.028Z,8.25
2023-02-23T21:26:48.378Z,8.14
2023-02-23T21:29:18.533Z,8.23
2023-02-23T21:31:47.132Z,8.18
2023-02-23T21:34:18.861Z,8.30
2023-02-23T21:36:51.372Z,8.21
2023-02-23T21:39:21.538Z,8.39
2023-02-23T21:41:53.184Z,8.15
2023-02-23T21:44:20.235Z,8.33
2023-02-23T21:46:47.830Z,8.38
2023-02-23T21:49:18.958Z,8.25
2023-02-23T21:51:48.549Z,8.34
2023-02-23T21:54:18.526Z,8.33
2023-02-23T21:56:45.485Z,8.19
2023-02-23T21:59:12.415Z,8.12
2023-02-23T22:01:41.859Z,8.10
2023-02-23T22:04:14.793Z,7.99
2023-02-23T22:06:44.061Z,8.08
2023-02-23T22:09:12.671Z,8.10
2023-02-23T22:11:45.528Z,8.02
2023-02-23T22:14:22.163Z,7.93
2023-02-23T22:16:52.335Z,7.86
2023-02-23T22:19:24.771Z,7.97
2023-02-23T22:21:51.935Z,7.95
2023-02-23T22:24:19.429Z,7.84
2023-02-23T22:26:54.210Z,7.88
2023-02-23T22:29:24.304Z,7.88
2023-02-23T22:31:54.563Z,7.64
2023-02-23T22:34:22.248Z,7.77
2023-02-23T22:36:51.356Z,7.87
2023-02-23T22:39:18.677Z,7.50
2023-02-23T22:41:47.796Z,7.69
2023-02-23T22:44:20.330Z,7.99
2023-02-23T22:46:50.487Z,7.92
2023-02-23T22:49:19.861Z,7.89
2023-02-23T22:51:47.091Z,7.72
2023-02-23T22:54:14.296Z,7.92
2023-02-23T22:56:44.072Z,7.88
2023-02-23T22:59:17.520Z,7.65
2023-02-23T23:01:50.316Z,7.76
2023-02-23T23:04:19.432Z,7.64
2023-02-23T23:06:46.585Z,7.64
2023-02-23T23:09:14.879Z,7.70
2023-02-23T23:11:45.249Z,7.84
2023-02-23T23:14:18.246Z,7.95
2023-02-23T23:16:53.293Z,7.79
2023-02-23T23:19:25.292Z,7.83
2023-02-23T23:21:55.270Z,7.64
2023-02-23T23:24:24.865Z,7.74
2023-02-23T23:27:00.460Z,7.88
2023-02-23T23:29:32.545Z,7.74
2023-02-23T23:32:02.425Z,7.87
2023-02-23T23:34:33.432Z,7.70
2023-02-23T23:37:04.283Z,7.59
2023-02-23T23:39:31.224Z,7.56
2023-02-23T23:42:01.955Z,7.45
2023-02-23T23:44:29.344Z,7.35
2023-02-23T23:46:57.029Z,7.15
2023-02-23T23:49:27.036Z,7.26
2023-02-23T23:51:58.544Z,7.28
2023-02-23T23:54:38.698Z,7.26
2023-02-23T23:57:08.065Z,7.08
2023-02-23T23:59:35.872Z,7.14
